Etusivu
METAR-TAF:

METAR-TAF

Lentoasemat :

Aarhus, Tanska

Leveyspiiri: 56-18N, Pituuspiiri: 010-37E, korkeus merenpinnasta: 23 m

Tämänhetkinen sää

Tämä raportti tehtiin 25 minuuttia sitten, kello 14.50 UTC
Tuuli 11 kn lännestä/lounaasta, vaihdellen etelän ja lännen/luoteen välillä
Lämpötila 14°C
Kosteus 63%
Ilmanpaine 996 hPa
Näkyvyys 10 km tai enemmän

METAR: EKAH 061450Z AUTO 25011KT 180V290 9999NDV SCT041/// 14/07 Q0996

Aika: 17:15 (15:15 UTC)

Sääennuste

Tämä raportti tehtiin 28 tuntia ja 12 minuuttia sitten, kello 11.03 UTC
Ennuste voimassa 05. päivästä klo 12 UTC - 05. päivään klo 18 UTC
Tuuli 8 kn lounaasta
Näkyvyys 10 km tai enemmän
Hajanaisia pilviä 3000 ft:n korkeudessa
Ajoittain
05. päivästä klo 12 UTC - 05. päivään klo 18 UTC
Muutamia pilviä 2000 ft:n korkeudessa, Cumulonimbus.

TAF: EKAH 051103Z 0512/0518 22008KT 9999 SCT030 TEMPO 0512/0518 FEW020CB

Säähavainnot ja -ennusteet yli 4000 lentoasemalta (METAR- ja TAF-raportit).

Käytössä olevat sääasemat on merkitty karttaan keltaisilla ja punaisilla pisteillä.

Aseta hiiri pisteen päälle nähdäksesi sääaseman nimen.

Klikkaa sitten nähdäksesi säähavainnot ja -ennusteet.

Kartan vaihtaminen: klikkaa mustalla rastilla varustettuja vihreitä pisteitä, niin voit zoomata sisään; viivalla varustettua vihreää pistettä, niin voit zoomata ulos tai vihreitä nuolia, niin pääset viereisille kartoille.


METAR-TAF: